Palmview, Texas
Current Conditions -  °F | °C
As of 7:53 AM on Wednesday 22 Oct 2014 (Local Time) from KMFE Reporting Station
Few Clouds Few Clouds  
Wind Chill: 71°   Ceiling: Unl
Heat Index: 71°   Visibility: 7mi
Dew Point: 69°   Wind: 5mph
Humidity: 93%   Direction: 360°N
Pressure: 29.99"   Gusts: NA
Location:  26.2182°N, 98.327°W
Report Text: KMFE 221253Z 36004KT 7SM FEW025 22/21 A2999 RMK AO2 SLP154 T02170206
Loading
Personal Weather Stations






























Interactive Weather Map
Tropical Storm Tracking
New forecast layout! Learn more

10-Day Weather Forecast

Advertisements
Track Severe Weather on mobile